Time;durP1;ratioP1;P1;durP2;ratioP2;P2;SDS_P1;SDS_P2;PMS_P1;PMS_P2;Temp;Humidity;BMP_temperature;BMP_pressure;BME280_temperature;BME280_humidity;BME280_pressure;Samples;Min_cycle;Max_cycle;Signal;HPM_P1;HPM_P2
2023/12/03 00:00:44;;;;;;;9.95;5.18;;;;;;;;;;4985672;28;20481;-78
2023/12/03 00:03:11;;;;;;;12.00;5.65;;;;;;;;;;4987019;28;20154;-78
2023/12/03 00:05:38;;;;;;;12.00;5.85;;;;;;;;;;4987823;28;20038;-79
2023/12/03 00:08:04;;;;;;;8.73;5.40;;;;;;;;;;4986855;28;20031;-78
2023/12/03 00:10:30;;;;;;;8.35;4.57;;;;;;;;;;4988382;28;20030;-78
2023/12/03 00:12:57;;;;;;;6.38;3.45;;;;;;;;;;4986502;28;20524;-78
2023/12/03 00:15:23;;;;;;;11.82;6.57;;;;;;;;;;4985557;28;20041;-78
2023/12/03 00:17:50;;;;;;;6.80;4.63;;;;;;;;;;4986624;28;20026;-78
2023/12/03 00:20:16;;;;;;;7.35;4.05;;;;;;;;;;4987231;28;20493;-78
2023/12/03 00:22:42;;;;;;;10.88;5.45;;;;;;;;;;4987221;28;20085;-78
2023/12/03 00:25:08;;;;;;;8.13;3.40;;;;;;;;;;4986135;28;20027;-80
2023/12/03 00:27:34;;;;;;;7.25;3.42;;;;;;;;;;4966723;28;20505;-80
2023/12/03 00:30:00;;;;;;;7.18;4.00;;;;;;;;;;4981835;28;20034;-81
2023/12/03 00:32:26;;;;;;;9.45;4.15;;;;;;;;;;4988412;28;20429;-80
2023/12/03 00:34:52;;;;;;;6.55;3.50;;;;;;;;;;4991624;28;20663;-79
2023/12/03 00:37:18;;;;;;;7.25;4.72;;;;;;;;;;4988507;28;20034;-80
2023/12/03 00:39:44;;;;;;;7.95;4.35;;;;;;;;;;4986639;28;20034;-80
2023/12/03 00:42:10;;;;;;;8.63;4.13;;;;;;;;;;4990793;28;20018;-79
2023/12/03 00:44:36;;;;;;;13.07;4.28;;;;;;;;;;4993046;28;20108;-80
2023/12/03 00:47:02;;;;;;;10.52;4.88;;;;;;;;;;4985789;28;20038;-80
2023/12/03 00:49:28;;;;;;;6.68;3.15;;;;;;;;;;4986938;28;20032;-80
2023/12/03 00:51:55;;;;;;;7.28;3.20;;;;;;;;;;4986062;28;20018;-80
2023/12/03 00:54:21;;;;;;;7.68;3.60;;;;;;;;;;4984452;28;20027;-80
2023/12/03 00:56:47;;;;;;;12.15;5.10;;;;;;;;;;4985458;28;20038;-80
2023/12/03 00:59:13;;;;;;;10.77;4.18;;;;;;;;;;4986080;28;20062;-80
2023/12/03 01:01:39;;;;;;;8.73;4.45;;;;;;;;;;5002456;28;20030;-81
2023/12/03 01:04:05;;;;;;;7.90;3.60;;;;;;;;;;5002540;28;20026;-80
2023/12/03 01:06:30;;;;;;;18.33;7.97;;;;;;;;;;5000012;28;20034;-81
2023/12/03 01:08:56;;;;;;;6.20;3.15;;;;;;;;;;5002755;28;20037;-80
2023/12/03 01:11:22;;;;;;;7.45;4.32;;;;;;;;;;4999951;28;20029;-80
2023/12/03 01:13:48;;;;;;;14.10;7.13;;;;;;;;;;4998778;28;20062;-81
2023/12/03 01:16:15;;;;;;;9.90;4.45;;;;;;;;;;4999639;28;20022;-81
2023/12/03 01:18:41;;;;;;;7.07;4.45;;;;;;;;;;5004077;28;20034;-80
2023/12/03 01:21:07;;;;;;;11.38;5.00;;;;;;;;;;4997141;28;20061;-81
2023/12/03 01:23:33;;;;;;;10.23;5.10;;;;;;;;;;5004383;28;20634;-81
2023/12/03 01:25:59;;;;;;;6.75;4.43;;;;;;;;;;5000172;28;20162;-81
2023/12/03 01:28:25;;;;;;;8.70;4.05;;;;;;;;;;4998347;28;20034;-81
2023/12/03 01:30:51;;;;;;;8.25;4.38;;;;;;;;;;5000185;28;20074;-81
2023/12/03 01:33:17;;;;;;;7.60;3.55;;;;;;;;;;4996796;28;20448;-82
2023/12/03 01:35:43;;;;;;;6.53;3.33;;;;;;;;;;4998606;28;20073;-81
2023/12/03 01:38:09;;;;;;;8.25;3.70;;;;;;;;;;4999073;28;20957;-81
2023/12/03 01:40:35;;;;;;;7.38;4.15;;;;;;;;;;5001412;28;20492;-81
2023/12/03 01:43:01;;;;;;;6.95;3.08;;;;;;;;;;5001533;28;20030;-82
2023/12/03 01:45:27;;;;;;;7.40;3.80;;;;;;;;;;4999567;28;20034;-82
2023/12/03 01:47:53;;;;;;;6.90;3.63;;;;;;;;;;4987676;28;20026;-81
2023/12/03 01:50:19;;;;;;;6.78;3.75;;;;;;;;;;5001702;28;20035;-81
2023/12/03 01:52:45;;;;;;;7.13;3.45;;;;;;;;;;4999780;28;20156;-81
2023/12/03 01:55:12;;;;;;;7.20;4.07;;;;;;;;;;4994474;28;20066;-81
2023/12/03 01:57:38;;;;;;;8.55;4.43;;;;;;;;;;4999154;28;20038;-81
2023/12/03 02:00:06;;;;;;;10.20;3.97;;;;;;;;;;4996372;28;20030;-81
2023/12/03 02:02:33;;;;;;;12.05;5.93;;;;;;;;;;5000708;28;20073;-81
2023/12/03 02:04:59;;;;;;;6.47;3.65;;;;;;;;;;5003124;28;20041;-81
2023/12/03 02:07:25;;;;;;;10.00;4.85;;;;;;;;;;5000292;28;20085;-81
2023/12/03 02:09:51;;;;;;;11.68;4.90;;;;;;;;;;4997142;28;20049;-81
2023/12/03 02:12:17;;;;;;;6.38;3.25;;;;;;;;;;5002005;28;20034;-81
2023/12/03 02:14:43;;;;;;;6.95;3.97;;;;;;;;;;5000493;28;20049;-81
2023/12/03 02:17:08;;;;;;;9.05;4.32;;;;;;;;;;4997048;28;20030;-81
2023/12/03 02:19:34;;;;;;;6.60;3.65;;;;;;;;;;5001724;28;20113;-81
2023/12/03 02:22:00;;;;;;;9.25;4.43;;;;;;;;;;5000914;28;20029;-81
2023/12/03 02:24:26;;;;;;;6.20;3.97;;;;;;;;;;4998945;28;20133;-81
2023/12/03 02:26:52;;;;;;;6.95;3.53;;;;;;;;;;5002633;28;20046;-81
2023/12/03 02:29:18;;;;;;;7.55;3.53;;;;;;;;;;4999051;28;20038;-81
2023/12/03 02:31:44;;;;;;;10.90;5.25;;;;;;;;;;4999337;28;20026;-81
2023/12/03 02:34:11;;;;;;;8.23;4.75;;;;;;;;;;4999670;28;20647;-81
2023/12/03 02:36:37;;;;;;;8.80;4.00;;;;;;;;;;4998555;28;20061;-81
2023/12/03 02:39:03;;;;;;;10.70;5.45;;;;;;;;;;4997213;28;20133;-80
2023/12/03 02:41:30;;;;;;;7.78;4.40;;;;;;;;;;5003051;28;20041;-81
2023/12/03 02:43:55;;;;;;;7.72;4.05;;;;;;;;;;5001341;28;20084;-80
2023/12/03 02:46:22;;;;;;;7.72;4.68;;;;;;;;;;4999726;28;20113;-80
2023/12/03 02:48:47;;;;;;;8.00;5.35;;;;;;;;;;5003017;28;20097;-80
2023/12/03 02:51:13;;;;;;;12.07;5.18;;;;;;;;;;4999135;28;20026;-79
2023/12/03 02:53:39;;;;;;;6.03;3.85;;;;;;;;;;4995871;28;20039;-80
2023/12/03 02:56:06;;;;;;;9.50;4.80;;;;;;;;;;4995927;28;20025;-81
2023/12/03 02:58:32;;;;;;;5.03;3.47;;;;;;;;;;4999349;28;20041;-80
2023/12/03 03:00:58;;;;;;;12.82;5.63;;;;;;;;;;4994251;28;20485;-80
2023/12/03 03:03:24;;;;;;;14.07;5.00;;;;;;;;;;5001957;28;20037;-80
2023/12/03 03:05:50;;;;;;;9.45;4.28;;;;;;;;;;4999052;28;20042;-80
2023/12/03 03:08:16;;;;;;;11.38;4.60;;;;;;;;;;4999463;28;20034;-80
2023/12/03 03:10:42;;;;;;;14.68;4.85;;;;;;;;;;4998986;28;22007;-80
2023/12/03 03:13:11;;;;;;;9.00;4.75;;;;;;;;;;4995826;28;20030;-80
2023/12/03 03:15:37;;;;;;;9.63;5.47;;;;;;;;;;4996566;28;20409;-80
2023/12/03 03:18:03;;;;;;;11.00;4.72;;;;;;;;;;4996499;28;20030;-80
2023/12/03 03:20:30;;;;;;;7.88;4.32;;;;;;;;;;5001004;28;20030;-80
2023/12/03 03:22:56;;;;;;;12.63;5.15;;;;;;;;;;4997484;28;20109;-79
2023/12/03 03:25:22;;;;;;;9.23;4.95;;;;;;;;;;4996332;28;20761;-80
2023/12/03 03:27:48;;;;;;;13.75;5.20;;;;;;;;;;4995234;28;20042;-80
2023/12/03 03:30:14;;;;;;;11.00;5.32;;;;;;;;;;4997854;28;20044;-80
2023/12/03 03:32:40;;;;;;;8.90;4.60;;;;;;;;;;4997591;28;20109;-80
2023/12/03 03:35:06;;;;;;;11.93;5.78;;;-2.90;99.90;;;;;;4993983;28;20047;-79
2023/12/03 03:37:31;;;;;;;10.55;5.75;;;-3.10;99.90;;;;;;4998804;28;20033;-80
2023/12/03 03:39:57;;;;;;;12.63;4.90;;;;;;;;;;4994579;28;20148;-80
2023/12/03 03:42:23;;;;;;;13.25;5.88;;;-2.10;99.90;;;;;;4995314;28;20030;-79
2023/12/03 03:44:49;;;;;;;13.95;6.03;;;;;;;;;;4993954;28;20039;-80
2023/12/03 03:47:15;;;;;;;8.85;5.18;;;;;;;;;;4993827;28;20050;-80
2023/12/03 03:49:41;;;;;;;10.43;4.88;;;;;;;;;;4993973;28;20054;-80
2023/12/03 03:52:07;;;;;;;13.48;5.18;;;;;;;;;;4995704;28;20023;-79
2023/12/03 03:54:33;;;;;;;11.40;6.28;;;;;;;;;;4993883;28;20025;-80
2023/12/03 03:56:59;;;;;;;14.98;6.88;;;;;;;;;;4989751;28;20038;-80
2023/12/03 03:59:26;;;;;;;8.55;4.57;;;;;;;;;;4992364;28;20037;-80
2023/12/03 04:01:51;;;;;;;13.45;5.72;;;-3.00;99.90;;;;;;4996138;28;20034;-79
2023/12/03 04:04:17;;;;;;;13.77;7.20;;;-2.30;99.90;;;;;;4993706;28;20031;-79
2023/12/03 04:06:46;;;;;;;11.50;4.70;;;;;;;;;;4997349;28;20030;-80
2023/12/03 04:09:13;;;;;;;16.10;7.00;;;;;;;;;;4993743;28;20062;-80
2023/12/03 04:11:42;;;;;;;10.45;5.68;;;;;;;;;;4992773;28;20054;-79
2023/12/03 04:14:08;;;;;;;10.30;5.68;;;;;;;;;;4995441;28;20019;-80
2023/12/03 04:16:35;;;;;;;9.75;5.05;;;;;;;;;;4991533;28;20030;-79
2023/12/03 04:19:01;;;;;;;10.02;5.88;;;;;;;;;;4989328;28;20053;-80
2023/12/03 04:21:27;;;;;;;10.88;6.00;;;;;;;;;;4993895;28;20030;-79
2023/12/03 04:23:53;;;;;;;13.35;7.63;;;;;;;;;;4995525;28;20089;-80
2023/12/03 04:26:19;;;;;;;10.27;5.60;;;;;;;;;;4994754;28;20517;-79
2023/12/03 04:28:45;;;;;;;11.93;6.40;;;;;;;;;;4989303;28;20034;-79
2023/12/03 04:31:25;;;;;;;12.85;6.05;;;-3.30;99.90;;;;;;4995102;28;20022;-81
2023/12/03 04:33:51;;;;;;;9.82;4.85;;;;;;;;;;4997403;28;20026;-80
2023/12/03 04:36:18;;;;;;;16.95;8.70;;;-3.40;99.90;;;;;;4995953;28;20035;-80
2023/12/03 04:38:44;;;;;;;10.13;5.07;;;-3.10;99.90;;;;;;4998776;28;20026;-80
2023/12/03 04:41:10;;;;;;;10.52;5.70;;;;;;;;;;4980172;28;20089;-81
2023/12/03 04:43:36;;;;;;;9.85;5.38;;;;;;;;;;4992622;28;20026;-81
2023/12/03 04:46:05;;;;;;;14.27;6.95;;;-3.50;99.90;;;;;;4992574;28;20041;-80
2023/12/03 04:48:31;;;;;;;6.35;4.60;;;;;;;;;;4995398;28;20493;-80
2023/12/03 04:50:58;;;;;;;11.98;5.43;;;;;;;;;;4995109;28;20026;-80
2023/12/03 04:53:24;;;;;;;7.95;4.80;;;;;;;;;;4990091;28;20033;-80
2023/12/03 04:55:50;;;;;;;15.07;6.00;;;;;;;;;;4995491;28;20405;-81
2023/12/03 04:58:16;;;;;;;10.23;6.15;;;;;;;;;;4992527;28;20061;-81
2023/12/03 05:00:41;;;;;;;9.32;5.68;;;;;;;;;;4993324;28;20030;-80
2023/12/03 05:03:08;;;;;;;13.27;6.22;;;;;;;;;;4994667;28;20030;-79
2023/12/03 05:05:34;;;;;;;12.13;7.63;;;;;;;;;;4996646;28;20030;-79
2023/12/03 05:07:59;;;;;;;18.83;6.97;;;;;;;;;;4990791;28;20034;-80
2023/12/03 05:10:26;;;;;;;13.88;6.20;;;;;;;;;;4992459;28;20090;-80
2023/12/03 05:12:52;;;;;;;10.73;6.10;;;;;;;;;;4991011;28;20370;-81
2023/12/03 05:15:18;;;;;;;14.07;6.32;;;;;;;;;;4985091;28;20095;-80
2023/12/03 05:17:43;;;;;;;11.75;5.05;;;;;;;;;;4999062;28;20375;-79
2023/12/03 05:20:10;;;;;;;9.43;5.35;;;;;;;;;;4993363;28;20026;-80
2023/12/03 05:22:36;;;;;;;10.57;6.32;;;;;;;;;;4992323;28;20087;-80
2023/12/03 05:25:02;;;;;;;15.05;7.60;;;;;;;;;;4994503;28;20057;-79
2023/12/03 05:27:28;;;;;;;12.63;6.57;;;;;;;;;;4995840;28;20026;-80
2023/12/03 05:29:54;;;;;;;13.32;7.20;;;;;;;;;;4996545;28;20852;-81
2023/12/03 05:32:20;;;;;;;15.20;7.82;;;;;;;;;;4998044;28;20037;-80
2023/12/03 05:34:46;;;;;;;16.60;6.55;;;;;;;;;;4998765;28;20556;-79
2023/12/03 05:37:13;;;;;;;13.90;8.05;;;;;;;;;;4996551;28;20026;-81
2023/12/03 05:39:39;;;;;;;14.07;7.43;;;;;;;;;;4991713;28;20454;-79
2023/12/03 05:42:05;;;;;;;14.18;6.72;;;;;;;;;;4994415;28;20492;-79
2023/12/03 05:44:32;;;;;;;16.70;7.22;;;;;;;;;;4994190;28;20030;-78
2023/12/03 05:46:58;;;;;;;12.63;6.70;;;;;;;;;;4996901;28;20121;-79
2023/12/03 05:49:23;;;;;;;10.70;5.68;;;;;;;;;;4996335;28;20062;-78
2023/12/03 05:51:50;;;;;;;11.63;6.03;;;;;;;;;;4992769;28;20026;-79
2023/12/03 05:54:16;;;;;;;7.47;4.38;;;;;;;;;;4994800;28;20034;-80
2023/12/03 05:56:43;;;;;;;14.32;5.72;;;;;;;;;;4991572;28;20034;-79
2023/12/03 05:59:09;;;;;;;15.15;6.22;;;;;;;;;;4996731;28;20113;-79
2023/12/03 06:01:35;;;;;;;12.23;5.63;;;;;;;;;;4996347;28;20064;-80
2023/12/03 06:04:06;;;;;;;10.93;6.25;;;;;;;;;;4996101;28;20105;-80
2023/12/03 06:06:32;;;;;;;14.63;6.88;;;;;;;;;;4993734;28;20504;-81
2023/12/03 06:08:58;;;;;;;13.38;5.97;;;;;;;;;;4988183;28;20042;-79
2023/12/03 06:11:24;;;;;;;9.38;5.80;;;;;;;;;;4992107;28;20022;-80
2023/12/03 06:13:50;;;;;;;16.58;7.13;;;;;;;;;;4990135;28;20576;-79
2023/12/03 06:16:15;;;;;;;14.43;6.60;;;;;;;;;;4990128;28;20027;-79
2023/12/03 06:18:43;;;;;;;10.73;5.57;;;;;;;;;;4993686;28;20113;-80
2023/12/03 06:21:09;;;;;;;18.92;7.78;;;;;;;;;;4990696;28;20042;-80
2023/12/03 06:23:35;;;;;;;13.55;6.25;;;;;;;;;;4988538;28;20037;-80
2023/12/03 06:26:01;;;;;;;16.38;8.05;;;;;;;;;;4987068;28;20030;-80
2023/12/03 06:28:27;;;;;;;18.13;7.80;;;;;;;;;;4989025;28;20117;-80
2023/12/03 06:30:53;;;;;;;13.38;7.07;;;;;;;;;;4990065;28;20117;-80
2023/12/03 06:33:19;;;;;;;14.10;6.70;;;;;;;;;;4986837;28;20042;-79
2023/12/03 06:35:45;;;;;;;19.98;6.80;;;;;;;;;;4988485;28;20035;-78
2023/12/03 06:38:12;;;;;;;13.77;6.00;;;;;;;;;;4988049;28;20085;-79
2023/12/03 06:40:38;;;;;;;13.95;6.25;;;;;;;;;;4991167;28;20100;-79
2023/12/03 06:43:04;;;;;;;14.88;7.15;;;;;;;;;;4987919;28;20041;-79
2023/12/03 06:45:30;;;;;;;13.27;8.05;;;;;;;;;;4986229;28;20114;-79
2023/12/03 06:47:56;;;;;;;18.27;8.07;;;;;;;;;;4985187;28;20026;-79
2023/12/03 06:50:22;;;;;;;9.88;6.75;;;;;;;;;;4991550;28;20524;-79
2023/12/03 06:52:48;;;;;;;12.40;7.63;;;;;;;;;;4992092;28;20042;-79
2023/12/03 06:55:14;;;;;;;14.32;7.40;;;;;;;;;;4990029;28;20037;-80
2023/12/03 06:57:39;;;;;;;10.10;6.40;;;;;;;;;;4985656;28;20044;-80
2023/12/03 07:00:06;;;;;;;12.90;7.00;;;;;;;;;;4984683;28;20481;-79
2023/12/03 07:02:32;;;;;;;14.70;6.72;;;;;;;;;;4991952;28;20141;-79
2023/12/03 07:04:58;;;;;;;15.70;7.65;;;;;;;;;;4986781;28;20563;-79
2023/12/03 07:07:24;;;;;;;16.27;7.13;;;;;;;;;;4978265;28;20034;-79
2023/12/03 07:09:50;;;;;;;13.63;6.38;;;;;;;;;;4985949;28;20517;-79
2023/12/03 07:12:16;;;;;;;15.13;8.05;;;;;;;;;;4983764;28;20057;-79
2023/12/03 07:14:44;;;;;;;17.88;8.27;;;;;;;;;;4984945;28;20030;-79
2023/12/03 07:17:10;;;;;;;14.65;6.03;;;;;;;;;;4982990;28;20178;-79
2023/12/03 07:19:36;;;;;;;15.95;7.15;;;;;;;;;;4989029;28;20121;-79
2023/12/03 07:22:02;;;;;;;20.15;9.70;;;;;;;;;;4987106;28;20027;-79
2023/12/03 07:24:28;;;;;;;10.95;6.30;;;;;;;;;;4986409;28;20739;-79
2023/12/03 07:26:54;;;;;;;14.05;8.07;;;;;;;;;;4985794;28;20022;-80
2023/12/03 07:29:20;;;;;;;15.98;7.53;;;;;;;;;;4979162;28;20034;-80
2023/12/03 07:31:46;;;;;;;16.52;7.75;;;;;;;;;;4985947;28;20049;-79
2023/12/03 07:34:12;;;;;;;17.38;7.68;;;;;;;;;;4985122;28;20030;-82
2023/12/03 07:36:38;;;;;;;21.90;9.07;;;;;;;;;;5000512;28;20026;-81
2023/12/03 07:39:04;;;;;;;17.55;7.38;;;;;;;;;;5001337;28;20054;-80
2023/12/03 07:41:31;;;;;;;19.85;9.43;;;;;;;;;;5002627;28;20077;-80
2023/12/03 07:43:57;;;;;;;17.13;9.10;;;;;;;;;;5000037;28;20109;-82
2023/12/03 07:46:23;;;;;;;12.60;7.57;;;;;;;;;;5000776;28;20127;-81
2023/12/03 07:48:49;;;;;;;12.90;7.80;;;;;;;;;;4989666;28;20071;-82
2023/12/03 07:51:14;;;;;;;22.23;8.02;;;;;;;;;;4984237;28;20023;-82
2023/12/03 07:53:40;;;;;;;19.88;6.97;;;;;;;;;;4999760;28;20135;-81
2023/12/03 07:56:07;;;;;;;16.58;8.40;;;;;;;;;;4991421;28;20027;-81
2023/12/03 07:58:34;;;;;;;14.80;7.72;;;;;;;;;;4988103;28;20042;-82
2023/12/03 08:01:00;;;;;;;26.05;8.93;;;;;;;;;;4991876;28;20025;-82
2023/12/03 08:03:26;;;;;;;17.73;8.25;;;;;;;;;;4992467;28;20018;-80
2023/12/03 08:05:52;;;;;;;15.40;6.75;;;;;;;;;;4991991;28;20046;-80
2023/12/03 08:08:18;;;;;;;16.08;6.55;;;;;;;;;;4992159;28;20034;-83
2023/12/03 08:10:44;;;;;;;14.25;6.82;;;;;;;;;;4994059;28;20046;-82
2023/12/03 08:13:10;;;;;;;16.67;8.65;;;;;;;;;;4995338;28;20118;-82
2023/12/03 08:15:36;;;;;;;14.32;6.43;;;;;;;;;;4989598;28;20030;-81
2023/12/03 08:18:03;;;;;;;15.13;8.05;;;;;;;;;;4994450;28;20073;-81
2023/12/03 08:20:29;;;;;;;12.90;7.07;;;;;;;;;;4995506;28;20030;-81
2023/12/03 08:22:54;;;;;;;17.60;7.32;;;;;;;;;;4999876;28;20081;-82
2023/12/03 08:25:20;;;;;;;16.23;7.72;;;;;;;;;;4994726;28;20033;-82
2023/12/03 08:27:46;;;;;;;18.50;8.95;;;;;;;;;;4992990;28;21861;-83
2023/12/03 08:30:13;;;;;;;17.05;7.63;;;;;;;;;;4989874;28;20031;-84
2023/12/03 08:32:39;;;;;;;14.68;7.32;;;;;;;;;;4988061;28;20033;-84
2023/12/03 08:35:05;;;;;;;14.45;7.53;;;;;;;;;;4978805;28;20030;-83
2023/12/03 08:37:31;;;;;;;17.85;8.38;;;;;;;;;;4981034;28;20037;-84
2023/12/03 08:39:58;;;;;;;19.35;9.82;;;-0.30;99.90;;;;;;4992913;28;20058;-80
2023/12/03 08:42:24;;;;;;;24.00;10.25;;;;;;;;;;4993063;28;20027;-80
2023/12/03 08:44:51;;;;;;;18.45;8.48;;;;;;;;;;4997907;28;20038;-83
2023/12/03 08:47:17;;;;;;;20.83;9.60;;;;;;;;;;4999179;28;20072;-83
2023/12/03 08:49:43;;;;;;;13.55;5.97;;;;;;;;;;4995182;28;20049;-81
2023/12/03 08:52:09;;;;;;;10.98;5.95;;;;;;;;;;4992688;28;20031;-83
2023/12/03 08:54:35;;;;;;;17.45;7.22;;;;;;;;;;4994528;28;20070;-84
2023/12/03 08:57:02;;;;;;;14.02;5.57;;;;;;;;;;4995885;28;20037;-83
2023/12/03 08:59:28;;;;;;;12.95;6.13;;;;;;;;;;4991720;28;20027;-79
2023/12/03 09:01:54;;;;;;;13.27;5.30;;;;;;;;;;4996781;28;20038;-80
2023/12/03 09:04:20;;;;;;;12.25;6.50;;;;;;;;;;4995584;28;20069;-81
2023/12/03 09:06:46;;;;;;;14.73;7.13;;;;;;;;;;4999082;28;20029;-81
2023/12/03 09:09:12;;;;;;;13.27;6.43;;;;;;;;;;4999784;28;20043;-82
2023/12/03 09:11:42;;;;;;;18.70;6.22;;;-0.70;99.90;;;;;;5006799;28;20022;-82
2023/12/03 09:14:08;;;;;;;15.93;7.43;;;;;;;;;;4999295;28;20030;-82
2023/12/03 09:16:34;;;;;;;15.77;7.00;;;;;;;;;;4998046;28;20022;-81
2023/12/03 09:19:00;;;;;;;13.13;7.88;;;;;;;;;;4996895;28;20560;-82
2023/12/03 09:21:26;;;;;;;15.35;7.35;;;;;;;;;;5004350;28;20057;-81
2023/12/03 09:23:52;;;;;;;17.10;6.38;;;;;;;;;;4997743;28;20090;-81
2023/12/03 09:26:18;;;;;;;18.25;8.23;;;;;;;;;;4997900;28;20033;-81
2023/12/03 09:28:44;;;;;;;15.07;6.55;;;;;;;;;;4999649;28;20035;-81
2023/12/03 09:31:11;;;;;;;15.90;7.30;;;;;;;;;;4989688;28;20031;-83
2023/12/03 09:33:37;;;;;;;12.30;7.35;;;;;;;;;;5001674;28;20049;-81
2023/12/03 09:36:03;;;;;;;17.65;6.28;;;;;;;;;;5006836;28;20037;-81
2023/12/03 09:38:29;;;;;;;16.05;6.93;;;;;;;;;;5001181;28;20036;-82
2023/12/03 09:40:58;;;;;;;10.70;6.13;;;-0.40;99.90;;;;;;4998338;28;20043;-84
2023/12/03 09:43:27;;;;;;;14.68;7.10;;;;;;;;;;4994901;28;20520;-84
2023/12/03 09:45:56;;;;;;;16.02;6.30;;;;;;;;;;4994781;28;20023;-83
2023/12/03 09:48:23;;;;;;;15.57;7.20;;;;;;;;;;4998310;28;20042;-83
2023/12/03 09:50:49;;;;;;;15.55;8.20;;;;;;;;;;4996565;28;20057;-85
2023/12/03 09:53:15;;;;;;;13.77;6.60;;;;;;;;;;4997034;28;20043;-84
2023/12/03 09:55:42;;;;;;;10.77;7.10;;;-0.60;99.90;;;;;;5000548;28;20047;-82
2023/12/03 09:58:10;;;;;;;16.05;7.10;;;;;;;;;;4999228;28;20042;-83
2023/12/03 10:00:39;;;;;;;12.95;6.18;;;;;;;;;;4985862;28;20037;-81
2023/12/03 10:03:06;;;;;;;14.68;7.43;;;;;;;;;;5001031;28;20053;-82
2023/12/03 10:05:32;;;;;;;14.15;7.28;;;;;;;;;;5006011;28;20076;-82
2023/12/03 10:07:58;;;;;;;12.25;6.80;;;;;;;;;;5002881;28;20026;-84
2023/12/03 10:10:28;;;;;;;14.77;6.40;;;;;;;;;;4997708;28;20057;-80
2023/12/03 10:12:55;;;;;;;12.77;6.40;;;;;;;;;;5006686;28;20038;-82
2023/12/03 10:15:21;;;;;;;16.40;8.85;;;;;;;;;;4996976;28;20035;-83
2023/12/03 10:17:47;;;;;;;13.13;6.72;;;;;;;;;;5001858;28;20034;-81
2023/12/03 10:20:20;;;;;;;14.05;6.72;;;;;;;;;;4990431;28;20030;-82
2023/12/03 10:22:46;;;;;;;12.57;6.85;;;;;;;;;;4994389;28;20589;-82
2023/12/03 10:25:25;;;;;;;14.00;6.95;;;;;;;;;;4995585;28;20398;-81
2023/12/03 10:27:52;;;;;;;15.45;7.30;;;;;;;;;;4996512;28;20421;-81
2023/12/03 10:30:18;;;;;;;14.82;7.20;;;;;;;;;;4994602;28;20045;-81
2023/12/03 10:32:45;;;;;;;13.63;6.28;;;0.40;99.90;;;;;;4995822;28;20035;-80
2023/12/03 10:35:11;;;;;;;18.48;7.50;;;;;;;;;;4994940;28;20034;-80
2023/12/03 10:37:38;;;;;;;11.68;6.90;;;;;;;;;;4992667;28;20317;-80
2023/12/03 10:40:04;;;;;;;16.02;6.80;;;;;;;;;;4990984;28;20037;-79
2023/12/03 10:42:33;;;;;;;12.93;6.22;;;;;;;;;;4994005;28;20046;-81
2023/12/03 10:45:08;;;;;;;17.58;8.43;;;-0.20;99.90;;;;;;4998799;28;20038;-82
2023/12/03 10:47:35;;;;;;;13.95;7.82;;;;;;;;;;4995809;28;20032;-81
2023/12/03 10:50:03;;;;;;;13.13;5.68;;;;;;;;;;4997457;28;20109;-81
2023/12/03 10:52:31;;;;;;;16.25;7.07;;;0.30;99.90;;;;;;4996909;28;20493;-82
2023/12/03 10:54:57;;;;;;;11.10;6.63;;;;;;;;;;4998348;28;20054;-81
2023/12/03 10:57:24;;;;;;;12.60;6.03;;;;;;;;;;4996736;28;20737;-81
2023/12/03 10:59:59;;;;;;;13.48;6.97;;;0.30;99.90;;;;;;4994466;28;20046;-81
2023/12/03 11:02:28;;;;;;;15.77;6.47;;;-0.20;99.90;;;;;;5000553;28;20053;-81
2023/12/03 11:05:03;;;;;;;15.05;7.20;;;0.40;99.90;;;;;;4984392;28;20061;-80
2023/12/03 11:07:30;;;;;;;15.70;7.25;;;;;;;;;;4996837;28;20096;-80
2023/12/03 11:09:57;;;;;;;14.88;7.30;;;;;;;;;;4997981;28;20050;-81
2023/12/03 11:12:24;;;;;;;13.35;6.82;;;;;;;;;;5002803;28;20086;-82
2023/12/03 11:14:50;;;;;;;13.95;6.05;;;;;;;;;;4995830;28;20046;-81
2023/12/03 11:17:25;;;;;;;9.98;6.07;;;;;;;;;;4992018;28;20114;-82
2023/12/03 11:19:54;;;;;;;17.67;7.93;;;-0.10;99.90;;;;;;4999004;28;20481;-81
2023/12/03 11:22:40;;;;;;;12.00;7.07;;;;;;;;;;4992977;28;20026;-80
2023/12/03 11:25:12;;;;;;;20.05;7.28;;;;;;;;;;4982043;28;20073;-78
2023/12/03 11:27:45;;;;;;;14.13;7.10;;;;;;;;;;4991896;28;20026;-79
2023/12/03 11:30:13;;;;;;;13.85;6.93;;;;;;;;;;4994736;28;20043;-81
2023/12/03 11:32:39;;;;;;;16.10;8.02;;;;;;;;;;4990042;28;20086;-83
2023/12/03 11:35:13;;;;;;;16.15;7.18;;;-0.90;99.90;;;;;;4990181;28;20057;-82
2023/12/03 11:37:42;;;;;;;15.90;7.93;;;-0.10;99.90;;;;;;4985314;28;20052;-83
2023/12/03 11:40:09;;;;;;;13.75;6.18;;;;;;;;;;4987375;28;20112;-81
2023/12/03 11:42:50;;;;;;;13.02;6.05;;;0.60;99.90;;;;;;4992699;28;20090;-81
2023/12/03 11:45:23;;;;;;;15.80;7.78;;;;;;;;;;4983735;28;20034;-82
2023/12/03 11:48:05;;;;;;;12.02;6.00;;;;;;;;;;4991257;28;20038;-82
2023/12/03 11:50:31;;;;;;;22.85;7.50;;;;;;;;;;4990782;28;20030;-80
2023/12/03 11:52:57;;;;;;;14.93;6.80;;;;;;;;;;4996962;28;20404;-80
2023/12/03 11:55:23;;;;;;;13.15;6.70;;;;;;;;;;4986889;28;20030;-79
2023/12/03 11:57:52;;;;;;;9.30;5.00;;;;;;;;;;4989279;28;21274;-80
2023/12/03 12:00:19;;;;;;;11.80;6.57;;;;;;;;;;4991333;28;20030;-79
2023/12/03 12:02:45;;;;;;;17.27;7.68;;;;;;;;;;4992989;28;20493;-82
2023/12/03 12:05:11;;;;;;;19.42;7.93;;;;;;;;;;4991899;28;20026;-80
2023/12/03 12:07:37;;;;;;;17.38;6.65;;;;;;;;;;4996786;28;20018;-81
2023/12/03 12:10:04;;;;;;;16.63;7.53;;;;;;;;;;5001543;28;20034;-79
2023/12/03 12:12:30;;;;;;;12.75;6.03;;;;;;;;;;4998315;28;20105;-79
2023/12/03 12:14:56;;;;;;;11.73;5.30;;;;;;;;;;4994296;28;20522;-81
2023/12/03 12:17:22;;;;;;;12.73;5.97;;;;;;;;;;4988609;28;20045;-80
2023/12/03 12:19:49;;;;;;;14.38;5.90;;;;;;;;;;4985106;28;20047;-80
2023/12/03 12:22:16;;;;;;;13.57;7.15;;;;;;;;;;4995519;28;20677;-82
2023/12/03 12:24:42;;;;;;;16.65;6.43;;;;;;;;;;4997647;28;20409;-81
2023/12/03 12:27:08;;;;;;;12.70;6.00;;;;;;;;;;4994781;28;21024;-81
2023/12/03 12:29:34;;;;;;;11.90;5.03;;;;;;;;;;4986426;28;20087;-80
2023/12/03 12:32:01;;;;;;;9.80;5.28;;;;;;;;;;4986915;28;20867;-81
2023/12/03 12:34:28;;;;;;;9.63;5.07;;;;;;;;;;4990853;28;20590;-80
2023/12/03 12:37:09;;;;;;;10.27;6.18;;;;;;;;;;4982236;28;20022;-78
2023/12/03 12:39:35;;;;;;;13.02;6.20;;;;;;;;;;4986088;28;20619;-81
2023/12/03 12:42:01;;;;;;;11.90;5.68;;;;;;;;;;4989766;28;20077;-78
2023/12/03 12:44:41;;;;;;;12.35;6.00;;;-0.20;99.90;;;;;;4983791;28;20035;-79
2023/12/03 12:47:07;;;;;;;11.25;5.32;;;;;;;;;;4982902;28;20045;-79
2023/12/03 12:49:33;;;;;;;14.05;6.75;;;;;;;;;;4980776;28;20042;-79
2023/12/03 12:52:13;;;;;;;14.77;5.85;;;0.00;99.90;;;;;;4988007;28;20034;-78
2023/12/03 12:54:46;;;;;;;14.77;5.90;;;-0.30;99.90;;;;;;4992736;28;20034;-81
2023/12/03 12:57:13;;;;;;;11.02;5.57;;;;;;;;;;4991618;28;20027;-79
2023/12/03 12:59:39;;;;;;;18.08;5.65;;;;;;;;;;4988669;28;20085;-80
2023/12/03 13:02:05;;;;;;;13.68;5.95;;;;;;;;;;4986172;28;20038;-81
2023/12/03 13:04:31;;;;;;;15.90;7.00;;;;;;;;;;4988059;28;20114;-80
2023/12/03 13:06:57;;;;;;;19.52;6.65;;;;;;;;;;4993196;28;20109;-79
2023/12/03 13:09:23;;;;;;;10.93;5.40;;;;;;;;;;4986374;28;20045;-81
2023/12/03 13:11:49;;;;;;;10.25;5.68;;;;;;;;;;4963571;28;20034;-79
2023/12/03 13:14:15;;;;;;;11.82;5.43;;;;;;;;;;4976207;28;20026;-80
2023/12/03 13:16:41;;;;;;;11.00;5.22;;;;;;;;;;4988999;28;20081;-79
2023/12/03 13:19:07;;;;;;;11.68;5.72;;;;;;;;;;4987039;28;20085;-79
2023/12/03 13:21:33;;;;;;;14.43;6.35;;;;;;;;;;4968933;28;20030;-79
2023/12/03 13:23:59;;;;;;;13.00;7.28;;;;;;;;;;4986429;28;20097;-81
2023/12/03 13:26:25;;;;;;;15.75;7.93;;;;;;;;;;4988662;28;20398;-79
2023/12/03 13:28:51;;;;;;;16.70;8.35;;;;;;;;;;4985570;28;20034;-79
2023/12/03 13:31:17;;;;;;;15.80;6.25;;;;;;;;;;4966971;28;20035;-80
2023/12/03 13:33:43;;;;;;;12.73;5.78;;;;;;;;;;4979263;28;20044;-79
2023/12/03 13:36:09;;;;;;;12.90;6.43;;;-0.30;99.90;;;;;;4988950;28;20034;-80
2023/12/03 13:38:35;;;;;;;14.73;6.82;;;;;;;;;;4992403;28;20018;-80
2023/12/03 13:41:01;;;;;;;14.73;6.18;;;;;;;;;;4987508;28;20088;-81
2023/12/03 13:43:27;;;;;;;10.65;5.68;;;;;;;;;;4985908;28;20022;-79
2023/12/03 13:45:53;;;;;;;9.75;5.28;;;;;;;;;;4978953;28;20061;-79
2023/12/03 13:48:19;;;;;;;13.60;6.05;;;;;;;;;;4980506;28;20046;-78
2023/12/03 13:50:45;;;;;;;13.07;5.68;;;;;;;;;;4987143;28;20659;-79
2023/12/03 13:53:11;;;;;;;17.08;7.28;;;;;;;;;;4993454;28;20045;-79
2023/12/03 13:55:37;;;;;;;13.55;6.28;;;;;;;;;;4991298;28;20041;-78
2023/12/03 13:58:03;;;;;;;11.32;5.68;;;;;;;;;;4984598;28;20116;-79
2023/12/03 14:00:28;;;;;;;10.85;5.28;;;;;;;;;;4985110;28;20022;-80
2023/12/03 14:02:55;;;;;;;12.93;5.40;;;;;;;;;;4986859;28;20033;-79
2023/12/03 14:05:21;;;;;;;20.42;8.07;;;;;;;;;;4988179;28;20063;-80
2023/12/03 14:07:47;;;;;;;15.75;6.25;;;;;;;;;;4986069;28;20124;-80
2023/12/03 14:10:13;;;;;;;17.75;7.50;;;;;;;;;;4982066;28;20182;-80
2023/12/03 14:12:39;;;;;;;14.63;6.28;;;;;;;;;;4987368;28;20579;-80
2023/12/03 14:15:06;;;;;;;19.27;6.97;;;-1.00;99.90;;;;;;4989114;28;20034;-81
2023/12/03 14:17:32;;;;;;;10.82;5.05;;;;;;;;;;4990911;28;20113;-80
2023/12/03 14:19:58;;;;;;;10.57;6.05;;;;;;;;;;4998024;28;22886;-81